sensor_id;sensor_type;location;lat;lon;timestamp;temperature;humidity
5055;DHT22;13829;48.990;8.346;2023-03-23T00:00:12;14.70;96.90
5055;DHT22;13829;48.990;8.346;2023-03-23T00:02:40;14.60;97.10
5055;DHT22;13829;48.990;8.346;2023-03-23T00:05:09;14.50;97.40
5055;DHT22;13829;48.990;8.346;2023-03-23T00:07:36;14.50;97.40
5055;DHT22;13829;48.990;8.346;2023-03-23T00:10:05;14.60;97.00
5055;DHT22;13829;48.990;8.346;2023-03-23T00:12:33;14.60;96.80
5055;DHT22;13829;48.990;8.346;2023-03-23T00:15:00;14.70;96.70
5055;DHT22;13829;48.990;8.346;2023-03-23T00:17:28;14.80;96.60
5055;DHT22;13829;48.990;8.346;2023-03-23T00:19:58;14.80;96.50
5055;DHT22;13829;48.990;8.346;2023-03-23T00:22:27;14.80;96.40
5055;DHT22;13829;48.990;8.346;2023-03-23T00:24:55;14.90;96.30
5055;DHT22;13829;48.990;8.346;2023-03-23T00:27:23;15.00;96.00
5055;DHT22;13829;48.990;8.346;2023-03-23T00:29:51;14.90;96.30
5055;DHT22;13829;48.990;8.346;2023-03-23T00:32:19;14.90;96.20
5055;DHT22;13829;48.990;8.346;2023-03-23T00:34:53;14.90;96.50
5055;DHT22;13829;48.990;8.346;2023-03-23T00:37:20;14.90;96.30
5055;DHT22;13829;48.990;8.346;2023-03-23T00:39:48;14.80;96.50
5055;DHT22;13829;48.990;8.346;2023-03-23T00:42:17;14.70;96.50
5055;DHT22;13829;48.990;8.346;2023-03-23T00:44:46;14.70;96.60
5055;DHT22;13829;48.990;8.346;2023-03-23T00:47:14;14.70;96.60
5055;DHT22;13829;48.990;8.346;2023-03-23T00:49:43;14.60;96.70
5055;DHT22;13829;48.990;8.346;2023-03-23T00:52:10;14.70;96.60
5055;DHT22;13829;48.990;8.346;2023-03-23T00:54:37;14.70;96.60
5055;DHT22;13829;48.990;8.346;2023-03-23T00:57:05;14.60;96.80
5055;DHT22;13829;48.990;8.346;2023-03-23T00:59:32;14.60;96.90
5055;DHT22;13829;48.990;8.346;2023-03-23T01:02:01;14.60;97.30
5055;DHT22;13829;48.990;8.346;2023-03-23T01:04:28;14.70;96.90
5055;DHT22;13829;48.990;8.346;2023-03-23T01:06:57;14.80;96.80
5055;DHT22;13829;48.990;8.346;2023-03-23T01:09:26;14.90;96.60
5055;DHT22;13829;48.990;8.346;2023-03-23T01:11:53;14.90;96.70
5055;DHT22;13829;48.990;8.346;2023-03-23T01:14:21;14.90;96.90
5055;DHT22;13829;48.990;8.346;2023-03-23T01:16:48;14.80;97.10
5055;DHT22;13829;48.990;8.346;2023-03-23T01:19:17;14.90;97.20
5055;DHT22;13829;48.990;8.346;2023-03-23T01:21:44;14.80;97.40
5055;DHT22;13829;48.990;8.346;2023-03-23T01:24:11;14.80;97.50
5055;DHT22;13829;48.990;8.346;2023-03-23T01:26:38;14.80;97.30
5055;DHT22;13829;48.990;8.346;2023-03-23T01:29:04;14.80;97.20
5055;DHT22;13829;48.990;8.346;2023-03-23T01:31:32;14.70;97.20
5055;DHT22;13829;48.990;8.346;2023-03-23T01:33:59;14.80;97.30
5055;DHT22;13829;48.990;8.346;2023-03-23T01:36:29;14.80;97.20
5055;DHT22;13829;48.990;8.346;2023-03-23T01:38:58;14.70;97.10
5055;DHT22;13829;48.990;8.346;2023-03-23T01:41:26;14.80;97.20
5055;DHT22;13829;48.990;8.346;2023-03-23T01:43:55;14.80;96.90
5055;DHT22;13829;48.990;8.346;2023-03-23T01:46:25;14.90;97.30
5055;DHT22;13829;48.990;8.346;2023-03-23T01:48:54;14.90;97.20
5055;DHT22;13829;48.990;8.346;2023-03-23T01:51:23;14.80;97.10
5055;DHT22;13829;48.990;8.346;2023-03-23T01:53:59;14.80;97.20
5055;DHT22;13829;48.990;8.346;2023-03-23T01:56:33;14.80;97.30
5055;DHT22;13829;48.990;8.346;2023-03-23T01:59:06;14.80;97.10
5055;DHT22;13829;48.990;8.346;2023-03-23T02:01:35;14.90;97.20
5055;DHT22;13829;48.990;8.346;2023-03-23T02:04:05;14.90;97.20
5055;DHT22;13829;48.990;8.346;2023-03-23T02:06:33;14.90;97.10
5055;DHT22;13829;48.990;8.346;2023-03-23T02:09:01;14.80;97.00
5055;DHT22;13829;48.990;8.346;2023-03-23T02:11:29;14.90;97.00
5055;DHT22;13829;48.990;8.346;2023-03-23T02:13:55;14.80;97.10
5055;DHT22;13829;48.990;8.346;2023-03-23T02:16:31;14.80;97.20
5055;DHT22;13829;48.990;8.346;2023-03-23T02:19:13;14.70;97.30
5055;DHT22;13829;48.990;8.346;2023-03-23T02:25:58;14.70;97.50
5055;DHT22;13829;48.990;8.346;2023-03-23T02:28:56;14.70;97.70
5055;DHT22;13829;48.990;8.346;2023-03-23T02:32:04;14.70;97.60
5055;DHT22;13829;48.990;8.346;2023-03-23T02:34:42;14.70;97.50
5055;DHT22;13829;48.990;8.346;2023-03-23T02:37:15;14.80;97.60
5055;DHT22;13829;48.990;8.346;2023-03-23T02:39:50;14.70;97.30
5055;DHT22;13829;48.990;8.346;2023-03-23T02:42:23;14.80;97.30
5055;DHT22;13829;48.990;8.346;2023-03-23T02:44:56;14.90;97.10
5055;DHT22;13829;48.990;8.346;2023-03-23T02:47:26;15.00;97.10
5055;DHT22;13829;48.990;8.346;2023-03-23T02:49:58;15.00;97.10
5055;DHT22;13829;48.990;8.346;2023-03-23T02:52:28;15.00;97.20
5055;DHT22;13829;48.990;8.346;2023-03-23T02:54:58;15.00;97.30
5055;DHT22;13829;48.990;8.346;2023-03-23T02:57:28;14.90;97.50
5055;DHT22;13829;48.990;8.346;2023-03-23T02:59:55;15.00;97.60
5055;DHT22;13829;48.990;8.346;2023-03-23T03:02:23;14.90;97.70
5055;DHT22;13829;48.990;8.346;2023-03-23T03:04:58;14.90;97.90
5055;DHT22;13829;48.990;8.346;2023-03-23T03:07:47;15.00;97.80
5055;DHT22;13829;48.990;8.346;2023-03-23T03:10:24;15.00;97.80
5055;DHT22;13829;48.990;8.346;2023-03-23T03:13:01;14.90;97.80
5055;DHT22;13829;48.990;8.346;2023-03-23T03:15:37;14.90;97.90
5055;DHT22;13829;48.990;8.346;2023-03-23T03:18:13;14.80;97.90
5055;DHT22;13829;48.990;8.346;2023-03-23T03:20:47;14.80;98.10
5055;DHT22;13829;48.990;8.346;2023-03-23T03:23:20;14.80;98.10
5055;DHT22;13829;48.990;8.346;2023-03-23T03:25:50;14.90;98.00
5055;DHT22;13829;48.990;8.346;2023-03-23T03:28:19;15.10;97.40
5055;DHT22;13829;48.990;8.346;2023-03-23T03:30:52;15.10;97.40
5055;DHT22;13829;48.990;8.346;2023-03-23T03:33:21;15.10;97.30
5055;DHT22;13829;48.990;8.346;2023-03-23T03:35:53;15.20;97.00
5055;DHT22;13829;48.990;8.346;2023-03-23T03:38:22;15.20;97.00
5055;DHT22;13829;48.990;8.346;2023-03-23T03:40:49;15.40;96.70
5055;DHT22;13829;48.990;8.346;2023-03-23T03:43:17;15.50;96.20
5055;DHT22;13829;48.990;8.346;2023-03-23T03:45:44;15.50;96.20
5055;DHT22;13829;48.990;8.346;2023-03-23T03:48:11;15.50;96.10
5055;DHT22;13829;48.990;8.346;2023-03-23T03:50:39;15.70;96.10
5055;DHT22;13829;48.990;8.346;2023-03-23T03:53:07;15.70;96.00
5055;DHT22;13829;48.990;8.346;2023-03-23T03:55:35;15.60;96.10
5055;DHT22;13829;48.990;8.346;2023-03-23T03:58:03;15.60;96.30
5055;DHT22;13829;48.990;8.346;2023-03-23T04:00:30;15.60;96.20
5055;DHT22;13829;48.990;8.346;2023-03-23T04:02:57;15.40;96.30
5055;DHT22;13829;48.990;8.346;2023-03-23T04:05:25;15.50;96.50
5055;DHT22;13829;48.990;8.346;2023-03-23T04:07:55;15.40;96.80
5055;DHT22;13829;48.990;8.346;2023-03-23T04:10:29;15.40;96.90
5055;DHT22;13829;48.990;8.346;2023-03-23T04:12:57;15.40;96.90
5055;DHT22;13829;48.990;8.346;2023-03-23T04:15:25;15.30;97.10
5055;DHT22;13829;48.990;8.346;2023-03-23T04:17:52;15.40;96.80
5055;DHT22;13829;48.990;8.346;2023-03-23T04:20:19;15.40;97.10
5055;DHT22;13829;48.990;8.346;2023-03-23T04:22:47;15.50;96.60
5055;DHT22;13829;48.990;8.346;2023-03-23T04:25:16;15.50;96.50
5055;DHT22;13829;48.990;8.346;2023-03-23T04:27:47;15.50;96.40
5055;DHT22;13829;48.990;8.346;2023-03-23T04:30:18;15.50;96.50
5055;DHT22;13829;48.990;8.346;2023-03-23T04:32:48;15.40;96.70
5055;DHT22;13829;48.990;8.346;2023-03-23T04:35:19;15.40;96.80
5055;DHT22;13829;48.990;8.346;2023-03-23T04:37:47;15.40;96.90
5055;DHT22;13829;48.990;8.346;2023-03-23T04:40:16;15.40;97.10
5055;DHT22;13829;48.990;8.346;2023-03-23T04:42:44;15.30;97.10
5055;DHT22;13829;48.990;8.346;2023-03-23T04:45:16;15.40;97.30
5055;DHT22;13829;48.990;8.346;2023-03-23T04:47:47;15.40;97.40
5055;DHT22;13829;48.990;8.346;2023-03-23T04:50:20;15.30;97.60
5055;DHT22;13829;48.990;8.346;2023-03-23T04:52:50;15.20;97.50
5055;DHT22;13829;48.990;8.346;2023-03-23T04:55:19;15.20;97.50
5055;DHT22;13829;48.990;8.346;2023-03-23T04:57:47;15.20;97.50
5055;DHT22;13829;48.990;8.346;2023-03-23T05:00:16;15.20;97.90
5055;DHT22;13829;48.990;8.346;2023-03-23T05:02:45;15.20;97.60
5055;DHT22;13829;48.990;8.346;2023-03-23T05:05:17;15.10;97.70
5055;DHT22;13829;48.990;8.346;2023-03-23T05:07:45;15.10;97.80
5055;DHT22;13829;48.990;8.346;2023-03-23T05:10:13;15.30;98.00
5055;DHT22;13829;48.990;8.346;2023-03-23T05:12:42;15.20;99.10
5055;DHT22;13829;48.990;8.346;2023-03-23T05:15:13;15.20;99.20
5055;DHT22;13829;48.990;8.346;2023-03-23T05:17:42;15.10;99.90
5055;DHT22;13829;48.990;8.346;2023-03-23T05:20:12;15.10;99.90
5055;DHT22;13829;48.990;8.346;2023-03-23T05:22:44;14.90;99.90
5055;DHT22;13829;48.990;8.346;2023-03-23T05:25:13;14.90;99.90
5055;DHT22;13829;48.990;8.346;2023-03-23T05:27:40;14.90;99.90
5055;DHT22;13829;48.990;8.346;2023-03-23T05:30:09;14.90;99.90
5055;DHT22;13829;48.990;8.346;2023-03-23T05:32:38;14.90;99.90
5055;DHT22;13829;48.990;8.346;2023-03-23T05:35:05;14.80;99.90
5055;DHT22;13829;48.990;8.346;2023-03-23T05:37:33;14.70;99.90
5055;DHT22;13829;48.990;8.346;2023-03-23T05:40:00;14.70;99.90
5055;DHT22;13829;48.990;8.346;2023-03-23T05:42:31;14.70;99.90
5055;DHT22;13829;48.990;8.346;2023-03-23T05:44:59;14.70;99.90
5055;DHT22;13829;48.990;8.346;2023-03-23T05:47:27;14.70;99.90
5055;DHT22;13829;48.990;8.346;2023-03-23T05:49:57;14.60;99.90
5055;DHT22;13829;48.990;8.346;2023-03-23T05:52:26;14.50;99.90
5055;DHT22;13829;48.990;8.346;2023-03-23T05:54:53;14.50;99.90
5055;DHT22;13829;48.990;8.346;2023-03-23T05:57:20;14.50;99.90
5055;DHT22;13829;48.990;8.346;2023-03-23T05:59:48;14.60;99.90
5055;DHT22;13829;48.990;8.346;2023-03-23T06:02:15;14.60;99.90
5055;DHT22;13829;48.990;8.346;2023-03-23T06:04:42;14.60;99.90
5055;DHT22;13829;48.990;8.346;2023-03-23T06:07:11;14.60;99.90
5055;DHT22;13829;48.990;8.346;2023-03-23T06:09:40;14.60;99.90
5055;DHT22;13829;48.990;8.346;2023-03-23T06:12:08;14.50;99.90
5055;DHT22;13829;48.990;8.346;2023-03-23T06:14:36;14.50;99.90
5055;DHT22;13829;48.990;8.346;2023-03-23T06:17:04;14.50;99.90
5055;DHT22;13829;48.990;8.346;2023-03-23T06:19:31;14.60;99.90
5055;DHT22;13829;48.990;8.346;2023-03-23T06:21:59;14.60;99.90
5055;DHT22;13829;48.990;8.346;2023-03-23T06:24:29;14.60;99.90
5055;DHT22;13829;48.990;8.346;2023-03-23T06:26:56;14.70;99.90
5055;DHT22;13829;48.990;8.346;2023-03-23T06:29:23;14.70;99.90
5055;DHT22;13829;48.990;8.346;2023-03-23T06:31:53;14.70;99.90
5055;DHT22;13829;48.990;8.346;2023-03-23T06:34:22;14.80;99.90
5055;DHT22;13829;48.990;8.346;2023-03-23T06:36:49;14.80;99.90
5055;DHT22;13829;48.990;8.346;2023-03-23T06:39:17;14.80;99.90
5055;DHT22;13829;48.990;8.346;2023-03-23T06:41:45;14.80;99.90
5055;DHT22;13829;48.990;8.346;2023-03-23T06:44:12;14.70;99.90
5055;DHT22;13829;48.990;8.346;2023-03-23T06:46:39;14.60;99.90
5055;DHT22;13829;48.990;8.346;2023-03-23T06:49:08;14.60;99.90
5055;DHT22;13829;48.990;8.346;2023-03-23T06:51:35;14.50;99.90
5055;DHT22;13829;48.990;8.346;2023-03-23T06:54:03;14.50;99.90
5055;DHT22;13829;48.990;8.346;2023-03-23T06:56:30;14.40;99.90
5055;DHT22;13829;48.990;8.346;2023-03-23T06:58:58;14.40;99.90
5055;DHT22;13829;48.990;8.346;2023-03-23T07:01:26;14.40;99.90
5055;DHT22;13829;48.990;8.346;2023-03-23T07:03:53;14.40;99.90
5055;DHT22;13829;48.990;8.346;2023-03-23T07:06:21;14.30;99.90
5055;DHT22;13829;48.990;8.346;2023-03-23T07:08:49;14.30;99.90
5055;DHT22;13829;48.990;8.346;2023-03-23T07:11:16;14.30;99.90
5055;DHT22;13829;48.990;8.346;2023-03-23T07:13:43;14.40;99.90
5055;DHT22;13829;48.990;8.346;2023-03-23T07:16:11;14.50;99.90
5055;DHT22;13829;48.990;8.346;2023-03-23T07:18:38;14.50;99.90
5055;DHT22;13829;48.990;8.346;2023-03-23T07:21:06;14.50;99.90
5055;DHT22;13829;48.990;8.346;2023-03-23T07:23:33;14.60;99.90
5055;DHT22;13829;48.990;8.346;2023-03-23T07:26:02;14.50;99.90
5055;DHT22;13829;48.990;8.346;2023-03-23T07:28:29;14.60;99.90
5055;DHT22;13829;48.990;8.346;2023-03-23T07:30:56;14.60;99.90
5055;DHT22;13829;48.990;8.346;2023-03-23T07:33:25;14.60;99.90
5055;DHT22;13829;48.990;8.346;2023-03-23T07:35:52;14.70;99.90
5055;DHT22;13829;48.990;8.346;2023-03-23T07:38:19;14.80;99.90
5055;DHT22;13829;48.990;8.346;2023-03-23T07:40:46;14.90;99.90
5055;DHT22;13829;48.990;8.346;2023-03-23T07:43:14;14.90;99.90
5055;DHT22;13829;48.990;8.346;2023-03-23T07:45:41;14.90;99.90
5055;DHT22;13829;48.990;8.346;2023-03-23T07:48:08;14.90;99.90
5055;DHT22;13829;48.990;8.346;2023-03-23T07:50:36;14.90;99.90
5055;DHT22;13829;48.990;8.346;2023-03-23T07:53:03;14.90;99.90
5055;DHT22;13829;48.990;8.346;2023-03-23T07:55:31;14.90;99.90
5055;DHT22;13829;48.990;8.346;2023-03-23T07:57:58;14.90;99.90
5055;DHT22;13829;48.990;8.346;2023-03-23T08:00:26;15.10;99.90
5055;DHT22;13829;48.990;8.346;2023-03-23T08:02:55;15.10;99.90
5055;DHT22;13829;48.990;8.346;2023-03-23T08:05:24;15.20;99.90
5055;DHT22;13829;48.990;8.346;2023-03-23T08:07:54;15.30;99.90
5055;DHT22;13829;48.990;8.346;2023-03-23T08:10:23;15.40;99.90
5055;DHT22;13829;48.990;8.346;2023-03-23T08:12:53;15.60;99.90
5055;DHT22;13829;48.990;8.346;2023-03-23T08:15:22;15.70;99.90
5055;DHT22;13829;48.990;8.346;2023-03-23T08:17:50;15.80;99.90
5055;DHT22;13829;48.990;8.346;2023-03-23T08:20:18;15.80;99.90
5055;DHT22;13829;48.990;8.346;2023-03-23T08:22:48;15.80;99.90
5055;DHT22;13829;48.990;8.346;2023-03-23T08:25:20;15.80;99.90
5055;DHT22;13829;48.990;8.346;2023-03-23T08:27:47;15.80;99.90
5055;DHT22;13829;48.990;8.346;2023-03-23T08:30:16;16.00;99.90
5055;DHT22;13829;48.990;8.346;2023-03-23T08:32:45;16.00;99.90
5055;DHT22;13829;48.990;8.346;2023-03-23T08:35:14;16.20;99.90
5055;DHT22;13829;48.990;8.346;2023-03-23T08:37:42;16.50;99.90
5055;DHT22;13829;48.990;8.346;2023-03-23T08:40:11;17.00;99.90
5055;DHT22;13829;48.990;8.346;2023-03-23T08:42:43;17.30;99.90
5055;DHT22;13829;48.990;8.346;2023-03-23T08:45:13;17.60;99.90
5055;DHT22;13829;48.990;8.346;2023-03-23T08:47:42;17.60;99.90
5055;DHT22;13829;48.990;8.346;2023-03-23T08:50:12;17.60;99.90
5055;DHT22;13829;48.990;8.346;2023-03-23T08:52:40;17.70;99.90
5055;DHT22;13829;48.990;8.346;2023-03-23T08:55:09;17.60;99.90
5055;DHT22;13829;48.990;8.346;2023-03-23T08:57:36;17.10;99.90
5055;DHT22;13829;48.990;8.346;2023-03-23T09:00:07;16.90;99.90
5055;DHT22;13829;48.990;8.346;2023-03-23T09:02:43;16.70;99.90
5055;DHT22;13829;48.990;8.346;2023-03-23T09:05:13;16.50;99.90
5055;DHT22;13829;48.990;8.346;2023-03-23T09:07:43;16.50;99.90
5055;DHT22;13829;48.990;8.346;2023-03-23T09:10:12;16.40;99.90
5055;DHT22;13829;48.990;8.346;2023-03-23T09:12:39;16.30;99.90
5055;DHT22;13829;48.990;8.346;2023-03-23T09:15:11;16.20;99.90
5055;DHT22;13829;48.990;8.346;2023-03-23T09:17:42;16.30;99.90
5055;DHT22;13829;48.990;8.346;2023-03-23T09:20:12;16.30;99.90
5055;DHT22;13829;48.990;8.346;2023-03-23T09:22:43;16.60;99.90
5055;DHT22;13829;48.990;8.346;2023-03-23T09:25:14;16.80;99.90
5055;DHT22;13829;48.990;8.346;2023-03-23T09:27:44;16.80;99.90
5055;DHT22;13829;48.990;8.346;2023-03-23T09:30:16;16.80;99.90
5055;DHT22;13829;48.990;8.346;2023-03-23T09:32:45;16.70;99.90
5055;DHT22;13829;48.990;8.346;2023-03-23T09:35:14;16.50;99.90
5055;DHT22;13829;48.990;8.346;2023-03-23T09:37:42;16.30;99.90
5055;DHT22;13829;48.990;8.346;2023-03-23T09:40:13;16.10;99.90
5055;DHT22;13829;48.990;8.346;2023-03-23T09:43:02;15.90;99.90
5055;DHT22;13829;48.990;8.346;2023-03-23T09:45:43;15.70;99.90
5055;DHT22;13829;48.990;8.346;2023-03-23T09:48:38;15.60;99.90
5055;DHT22;13829;48.990;8.346;2023-03-23T09:51:21;15.60;99.90
5055;DHT22;13829;48.990;8.346;2023-03-23T09:54:02;15.50;99.90
5055;DHT22;13829;48.990;8.346;2023-03-23T09:56:34;15.40;99.90
5055;DHT22;13829;48.990;8.346;2023-03-23T09:59:09;15.30;99.90
5055;DHT22;13829;48.990;8.346;2023-03-23T10:01:48;15.20;99.90
5055;DHT22;13829;48.990;8.346;2023-03-23T10:04:27;15.20;99.90
5055;DHT22;13829;48.990;8.346;2023-03-23T10:06:59;15.10;99.90
5055;DHT22;13829;48.990;8.346;2023-03-23T10:09:36;15.10;99.90
5055;DHT22;13829;48.990;8.346;2023-03-23T10:12:09;15.10;99.90
5055;DHT22;13829;48.990;8.346;2023-03-23T10:14:55;15.00;99.90
5055;DHT22;13829;48.990;8.346;2023-03-23T10:17:37;14.90;99.90
5055;DHT22;13829;48.990;8.346;2023-03-23T10:20:24;15.00;99.90
5055;DHT22;13829;48.990;8.346;2023-03-23T10:23:05;15.00;99.90
5055;DHT22;13829;48.990;8.346;2023-03-23T10:25:41;15.00;99.90
5055;DHT22;13829;48.990;8.346;2023-03-23T10:28:16;15.00;99.90
5055;DHT22;13829;48.990;8.346;2023-03-23T10:30:49;15.10;99.90
5055;DHT22;13829;48.990;8.346;2023-03-23T10:33:25;15.10;99.90
5055;DHT22;13829;48.990;8.346;2023-03-23T10:36:07;15.10;99.90
5055;DHT22;13829;48.990;8.346;2023-03-23T10:38:40;15.00;99.90
5055;DHT22;13829;48.990;8.346;2023-03-23T10:41:12;15.10;99.90
5055;DHT22;13829;48.990;8.346;2023-03-23T10:43:41;15.00;99.90
5055;DHT22;13829;48.990;8.346;2023-03-23T10:46:16;15.10;99.90
5055;DHT22;13829;48.990;8.346;2023-03-23T10:48:53;15.10;99.90
5055;DHT22;13829;48.990;8.346;2023-03-23T10:51:28;15.20;99.90
5055;DHT22;13829;48.990;8.346;2023-03-23T10:54:02;15.20;99.90
5055;DHT22;13829;48.990;8.346;2023-03-23T10:56:35;15.30;99.90
5055;DHT22;13829;48.990;8.346;2023-03-23T10:59:14;15.50;99.90
5055;DHT22;13829;48.990;8.346;2023-03-23T11:01:51;15.50;99.90
5055;DHT22;13829;48.990;8.346;2023-03-23T11:04:22;15.50;99.90
5055;DHT22;13829;48.990;8.346;2023-03-23T11:06:52;15.50;99.90
5055;DHT22;13829;48.990;8.346;2023-03-23T11:09:33;15.50;99.90
5055;DHT22;13829;48.990;8.346;2023-03-23T11:12:02;15.50;99.90
5055;DHT22;13829;48.990;8.346;2023-03-23T11:14:31;15.40;99.90
5055;DHT22;13829;48.990;8.346;2023-03-23T11:17:01;15.40;99.90
5055;DHT22;13829;48.990;8.346;2023-03-23T11:19:32;15.40;99.90
5055;DHT22;13829;48.990;8.346;2023-03-23T11:22:07;15.30;99.90
5055;DHT22;13829;48.990;8.346;2023-03-23T11:24:37;15.40;99.90
5055;DHT22;13829;48.990;8.346;2023-03-23T11:27:09;15.50;99.90
5055;DHT22;13829;48.990;8.346;2023-03-23T11:29:47;15.60;99.90
5055;DHT22;13829;48.990;8.346;2023-03-23T11:32:17;15.60;99.90
5055;DHT22;13829;48.990;8.346;2023-03-23T11:34:48;15.70;99.90
5055;DHT22;13829;48.990;8.346;2023-03-23T11:37:32;15.80;99.90
5055;DHT22;13829;48.990;8.346;2023-03-23T11:40:03;16.00;99.90
5055;DHT22;13829;48.990;8.346;2023-03-23T11:42:44;16.00;99.90
5055;DHT22;13829;48.990;8.346;2023-03-23T11:45:19;16.00;99.90
5055;DHT22;13829;48.990;8.346;2023-03-23T11:47:57;15.90;99.90
5055;DHT22;13829;48.990;8.346;2023-03-23T11:50:34;16.00;99.90
5055;DHT22;13829;48.990;8.346;2023-03-23T11:53:09;16.00;99.90
5055;DHT22;13829;48.990;8.346;2023-03-23T11:55:53;16.10;99.90
5055;DHT22;13829;48.990;8.346;2023-03-23T11:58:27;16.20;99.90
5055;DHT22;13829;48.990;8.346;2023-03-23T12:01:00;16.30;99.90
5055;DHT22;13829;48.990;8.346;2023-03-23T12:03:47;16.40;99.90
5055;DHT22;13829;48.990;8.346;2023-03-23T12:06:33;16.50;99.90
5055;DHT22;13829;48.990;8.346;2023-03-23T12:09:20;16.40;99.90
5055;DHT22;13829;48.990;8.346;2023-03-23T12:12:05;16.60;99.90
5055;DHT22;13829;48.990;8.346;2023-03-23T12:14:46;16.80;99.90
5055;DHT22;13829;48.990;8.346;2023-03-23T12:17:30;17.00;99.90
5055;DHT22;13829;48.990;8.346;2023-03-23T12:20:24;17.10;99.90
5055;DHT22;13829;48.990;8.346;2023-03-23T12:23:13;17.10;99.90
5055;DHT22;13829;48.990;8.346;2023-03-23T12:26:12;17.00;99.90
5055;DHT22;13829;48.990;8.346;2023-03-23T12:28:55;16.90;99.90
5055;DHT22;13829;48.990;8.346;2023-03-23T12:31:41;16.80;99.90
5055;DHT22;13829;48.990;8.346;2023-03-23T12:34:22;16.70;99.90
5055;DHT22;13829;48.990;8.346;2023-03-23T12:37:18;16.80;99.90
5055;DHT22;13829;48.990;8.346;2023-03-23T12:40:16;16.70;99.90
5055;DHT22;13829;48.990;8.346;2023-03-23T12:42:59;16.70;99.90
5055;DHT22;13829;48.990;8.346;2023-03-23T12:45:48;16.60;99.90
5055;DHT22;13829;48.990;8.346;2023-03-23T12:48:26;16.50;99.90
5055;DHT22;13829;48.990;8.346;2023-03-23T12:51:10;16.50;99.90
5055;DHT22;13829;48.990;8.346;2023-03-23T12:53:48;16.50;99.90
5055;DHT22;13829;48.990;8.346;2023-03-23T12:56:26;16.50;99.90
5055;DHT22;13829;48.990;8.346;2023-03-23T12:59:03;16.50;99.90
5055;DHT22;13829;48.990;8.346;2023-03-23T13:01:42;16.50;99.90
5055;DHT22;13829;48.990;8.346;2023-03-23T13:04:17;16.50;99.90
5055;DHT22;13829;48.990;8.346;2023-03-23T13:06:47;16.50;99.90
5055;DHT22;13829;48.990;8.346;2023-03-23T13:09:19;16.50;99.90
5055;DHT22;13829;48.990;8.346;2023-03-23T13:11:53;16.50;99.90
5055;DHT22;13829;48.990;8.346;2023-03-23T13:14:29;16.50;99.90
5055;DHT22;13829;48.990;8.346;2023-03-23T13:17:10;16.60;99.90
5055;DHT22;13829;48.990;8.346;2023-03-23T13:20:07;16.60;99.90
5055;DHT22;13829;48.990;8.346;2023-03-23T13:22:54;16.70;99.90
5055;DHT22;13829;48.990;8.346;2023-03-23T13:25:35;16.80;99.90
5055;DHT22;13829;48.990;8.346;2023-03-23T13:28:18;16.90;99.90
5055;DHT22;13829;48.990;8.346;2023-03-23T13:31:02;17.00;99.90
5055;DHT22;13829;48.990;8.346;2023-03-23T13:33:32;17.20;99.90
5055;DHT22;13829;48.990;8.346;2023-03-23T13:36:07;17.40;99.90
5055;DHT22;13829;48.990;8.346;2023-03-23T13:38:36;17.60;99.90
5055;DHT22;13829;48.990;8.346;2023-03-23T13:41:08;17.60;99.90
5055;DHT22;13829;48.990;8.346;2023-03-23T13:43:41;17.80;99.90
5055;DHT22;13829;48.990;8.346;2023-03-23T13:46:13;18.00;99.90
5055;DHT22;13829;48.990;8.346;2023-03-23T13:49:04;18.10;99.90
5055;DHT22;13829;48.990;8.346;2023-03-23T13:51:59;18.20;99.90
5055;DHT22;13829;48.990;8.346;2023-03-23T13:54:49;18.20;99.90
5055;DHT22;13829;48.990;8.346;2023-03-23T13:57:36;18.30;99.90
5055;DHT22;13829;48.990;8.346;2023-03-23T14:00:27;18.30;99.90
5055;DHT22;13829;48.990;8.346;2023-03-23T14:03:02;18.30;99.90
5055;DHT22;13829;48.990;8.346;2023-03-23T14:05:35;18.40;99.90
5055;DHT22;13829;48.990;8.346;2023-03-23T14:08:13;18.40;99.90
5055;DHT22;13829;48.990;8.346;2023-03-23T14:10:51;18.40;99.90
5055;DHT22;13829;48.990;8.346;2023-03-23T14:13:25;18.40;99.90
5055;DHT22;13829;48.990;8.346;2023-03-23T14:16:01;18.40;99.90
5055;DHT22;13829;48.990;8.346;2023-03-23T14:18:35;18.30;99.90
5055;DHT22;13829;48.990;8.346;2023-03-23T14:21:04;18.10;99.90
5055;DHT22;13829;48.990;8.346;2023-03-23T14:23:33;18.00;99.90
5055;DHT22;13829;48.990;8.346;2023-03-23T14:26:02;18.00;99.90
5055;DHT22;13829;48.990;8.346;2023-03-23T14:28:38;18.00;99.90
5055;DHT22;13829;48.990;8.346;2023-03-23T14:31:16;18.00;99.90
5055;DHT22;13829;48.990;8.346;2023-03-23T14:33:46;18.10;99.90
5055;DHT22;13829;48.990;8.346;2023-03-23T14:36:14;18.00;99.90
5055;DHT22;13829;48.990;8.346;2023-03-23T14:38:46;17.90;99.90
5055;DHT22;13829;48.990;8.346;2023-03-23T14:41:12;18.00;99.90
5055;DHT22;13829;48.990;8.346;2023-03-23T14:43:40;18.00;99.90
5055;DHT22;13829;48.990;8.346;2023-03-23T14:46:08;17.80;99.90
5055;DHT22;13829;48.990;8.346;2023-03-23T14:48:40;17.70;99.90
5055;DHT22;13829;48.990;8.346;2023-03-23T14:51:07;17.70;99.90
5055;DHT22;13829;48.990;8.346;2023-03-23T14:53:44;17.80;99.90
5055;DHT22;13829;48.990;8.346;2023-03-23T14:56:15;17.50;99.90
5055;DHT22;13829;48.990;8.346;2023-03-23T14:58:44;17.40;99.90
5055;DHT22;13829;48.990;8.346;2023-03-23T15:01:14;17.20;99.90
5055;DHT22;13829;48.990;8.346;2023-03-23T15:03:51;17.20;99.90
5055;DHT22;13829;48.990;8.346;2023-03-23T15:06:22;17.10;99.90
5055;DHT22;13829;48.990;8.346;2023-03-23T15:08:56;17.10;99.90
5055;DHT22;13829;48.990;8.346;2023-03-23T15:11:29;17.00;99.90
5055;DHT22;13829;48.990;8.346;2023-03-23T15:14:08;16.90;99.90
5055;DHT22;13829;48.990;8.346;2023-03-23T15:16:45;16.80;99.90
5055;DHT22;13829;48.990;8.346;2023-03-23T15:19:17;16.80;99.90
5055;DHT22;13829;48.990;8.346;2023-03-23T15:21:48;16.90;99.90
5055;DHT22;13829;48.990;8.346;2023-03-23T15:24:25;16.70;99.90
5055;DHT22;13829;48.990;8.346;2023-03-23T15:27:11;16.60;99.90
5055;DHT22;13829;48.990;8.346;2023-03-23T15:29:47;16.70;99.90
5055;DHT22;13829;48.990;8.346;2023-03-23T15:32:23;16.60;99.90
5055;DHT22;13829;48.990;8.346;2023-03-23T15:34:52;16.70;99.90
5055;DHT22;13829;48.990;8.346;2023-03-23T15:37:24;16.60;99.90
5055;DHT22;13829;48.990;8.346;2023-03-23T15:39:54;16.70;99.90
5055;DHT22;13829;48.990;8.346;2023-03-23T15:42:26;16.70;99.90
5055;DHT22;13829;48.990;8.346;2023-03-23T15:45:03;16.60;99.90
5055;DHT22;13829;48.990;8.346;2023-03-23T15:47:48;16.70;99.90
5055;DHT22;13829;48.990;8.346;2023-03-23T15:50:17;16.70;99.90
5055;DHT22;13829;48.990;8.346;2023-03-23T15:52:47;16.70;99.90
5055;DHT22;13829;48.990;8.346;2023-03-23T15:55:25;16.70;99.90
5055;DHT22;13829;48.990;8.346;2023-03-23T15:57:55;16.70;99.90
5055;DHT22;13829;48.990;8.346;2023-03-23T16:00:25;16.70;99.90
5055;DHT22;13829;48.990;8.346;2023-03-23T16:02:56;16.70;99.90
5055;DHT22;13829;48.990;8.346;2023-03-23T16:05:26;16.60;99.90
5055;DHT22;13829;48.990;8.346;2023-03-23T16:07:54;16.80;99.90
5055;DHT22;13829;48.990;8.346;2023-03-23T16:10:23;16.60;99.90
5055;DHT22;13829;48.990;8.346;2023-03-23T16:12:50;16.60;99.90
5055;DHT22;13829;48.990;8.346;2023-03-23T16:15:18;16.70;99.90
5055;DHT22;13829;48.990;8.346;2023-03-23T16:17:45;16.60;99.90
5055;DHT22;13829;48.990;8.346;2023-03-23T16:20:16;16.60;99.90